sensor_id;sensor_type;location;lat;lon;timestamp;pressure;altitude;pressure_sealevel;temperature;humidity
10881;BME280;5493;48.884;8.338;2023-01-26T00:00:45;100915.72;;;3.50;100.00
10881;BME280;5493;48.884;8.338;2023-01-26T00:03:12;100917.28;;;3.35;100.00
10881;BME280;5493;48.884;8.338;2023-01-26T00:05:38;100915.13;;;3.38;100.00
10881;BME280;5493;48.884;8.338;2023-01-26T00:08:07;100908.25;;;3.28;100.00
10881;BME280;5493;48.884;8.338;2023-01-26T00:10:34;100909.53;;;3.50;100.00
10881;BME280;5493;48.884;8.338;2023-01-26T00:13:00;100899.19;;;3.46;100.00
10881;BME280;5493;48.884;8.338;2023-01-26T00:15:27;100898.91;;;3.58;100.00
10881;BME280;5493;48.884;8.338;2023-01-26T00:17:54;100895.78;;;3.36;100.00
10881;BME280;5493;48.884;8.338;2023-01-26T00:20:20;100895.84;;;3.44;100.00
10881;BME280;5493;48.884;8.338;2023-01-26T00:22:47;100898.63;;;3.35;100.00
10881;BME280;5493;48.884;8.338;2023-01-26T00:25:15;100896.09;;;3.33;100.00
10881;BME280;5493;48.884;8.338;2023-01-26T00:27:41;100894.03;;;3.19;100.00
10881;BME280;5493;48.884;8.338;2023-01-26T00:30:09;100894.13;;;3.10;100.00
10881;BME280;5493;48.884;8.338;2023-01-26T00:32:35;100897.38;;;3.21;100.00
10881;BME280;5493;48.884;8.338;2023-01-26T00:35:02;100904.78;;;3.10;100.00
10881;BME280;5493;48.884;8.338;2023-01-26T00:37:29;100900.31;;;3.10;100.00
10881;BME280;5493;48.884;8.338;2023-01-26T00:39:56;100890.94;;;3.06;100.00
10881;BME280;5493;48.884;8.338;2023-01-26T00:42:24;100878.34;;;3.16;100.00
10881;BME280;5493;48.884;8.338;2023-01-26T00:44:50;100883.63;;;3.08;100.00
10881;BME280;5493;48.884;8.338;2023-01-26T00:47:17;100883.34;;;2.93;100.00
10881;BME280;5493;48.884;8.338;2023-01-26T00:49:44;100878.16;;;3.10;100.00
10881;BME280;5493;48.884;8.338;2023-01-26T00:52:11;100879.72;;;2.94;100.00
10881;BME280;5493;48.884;8.338;2023-01-26T00:54:38;100879.50;;;2.88;100.00
10881;BME280;5493;48.884;8.338;2023-01-26T00:57:04;100883.06;;;2.96;100.00
10881;BME280;5493;48.884;8.338;2023-01-26T00:59:32;100876.91;;;2.96;100.00
10881;BME280;5493;48.884;8.338;2023-01-26T01:01:59;100877.03;;;2.94;100.00
10881;BME280;5493;48.884;8.338;2023-01-26T01:04:26;100875.16;;;2.87;100.00
10881;BME280;5493;48.884;8.338;2023-01-26T01:06:54;100868.41;;;3.01;100.00
10881;BME280;5493;48.884;8.338;2023-01-26T01:09:20;100870.56;;;2.97;100.00
10881;BME280;5493;48.884;8.338;2023-01-26T01:11:47;100872.81;;;2.84;100.00
10881;BME280;5493;48.884;8.338;2023-01-26T01:14:14;100865.34;;;2.87;100.00
10881;BME280;5493;48.884;8.338;2023-01-26T01:16:44;100855.69;;;2.86;100.00
10881;BME280;5493;48.884;8.338;2023-01-26T01:19:13;100854.06;;;2.93;100.00
10881;BME280;5493;48.884;8.338;2023-01-26T01:21:40;100849.78;;;3.01;100.00
10881;BME280;5493;48.884;8.338;2023-01-26T01:24:07;100859.56;;;2.92;100.00
10881;BME280;5493;48.884;8.338;2023-01-26T01:26:33;100858.56;;;2.93;100.00
10881;BME280;5493;48.884;8.338;2023-01-26T01:29:00;100849.09;;;2.98;100.00
10881;BME280;5493;48.884;8.338;2023-01-26T01:31:26;100841.44;;;3.21;100.00
10881;BME280;5493;48.884;8.338;2023-01-26T01:33:55;100844.41;;;3.18;100.00
10881;BME280;5493;48.884;8.338;2023-01-26T01:36:22;100839.91;;;3.19;100.00
10881;BME280;5493;48.884;8.338;2023-01-26T01:38:49;100846.13;;;3.27;100.00
10881;BME280;5493;48.884;8.338;2023-01-26T01:41:17;100837.09;;;3.62;100.00
10881;BME280;5493;48.884;8.338;2023-01-26T01:43:44;100840.09;;;3.59;100.00
10881;BME280;5493;48.884;8.338;2023-01-26T01:46:15;100830.28;;;3.68;100.00
10881;BME280;5493;48.884;8.338;2023-01-26T01:48:49;100830.63;;;3.73;100.00
10881;BME280;5493;48.884;8.338;2023-01-26T01:51:28;100828.34;;;3.86;100.00
10881;BME280;5493;48.884;8.338;2023-01-26T01:53:58;100825.00;;;3.84;100.00
10881;BME280;5493;48.884;8.338;2023-01-26T01:56:28;100833.72;;;3.94;100.00
10881;BME280;5493;48.884;8.338;2023-01-26T01:58:57;100828.69;;;3.83;100.00
10881;BME280;5493;48.884;8.338;2023-01-26T02:01:25;100838.97;;;3.70;100.00
10881;BME280;5493;48.884;8.338;2023-01-26T02:03:56;100838.69;;;3.39;100.00
10881;BME280;5493;48.884;8.338;2023-01-26T02:06:28;100833.91;;;3.59;100.00
10881;BME280;5493;48.884;8.338;2023-01-26T02:08:56;100835.41;;;3.53;100.00
10881;BME280;5493;48.884;8.338;2023-01-26T02:11:27;100833.69;;;3.36;100.00
10881;BME280;5493;48.884;8.338;2023-01-26T02:13:55;100834.72;;;3.51;100.00
10881;BME280;5493;48.884;8.338;2023-01-26T02:16:23;100830.22;;;3.43;100.00
10881;BME280;5493;48.884;8.338;2023-01-26T02:18:50;100825.91;;;3.51;100.00
10881;BME280;5493;48.884;8.338;2023-01-26T02:21:18;100830.72;;;3.47;100.00
10881;BME280;5493;48.884;8.338;2023-01-26T02:23:56;100829.59;;;3.24;100.00
10881;BME280;5493;48.884;8.338;2023-01-26T02:26:28;100832.38;;;3.48;100.00
10881;BME280;5493;48.884;8.338;2023-01-26T02:28:55;100826.19;;;3.47;100.00
10881;BME280;5493;48.884;8.338;2023-01-26T02:31:22;100821.84;;;3.38;100.00
10881;BME280;5493;48.884;8.338;2023-01-26T02:33:50;100822.00;;;3.29;100.00
10881;BME280;5493;48.884;8.338;2023-01-26T02:36:19;100827.19;;;3.38;100.00
10881;BME280;5493;48.884;8.338;2023-01-26T02:38:52;100830.84;;;3.37;100.00
10881;BME280;5493;48.884;8.338;2023-01-26T02:41:21;100824.88;;;3.10;100.00
10881;BME280;5493;48.884;8.338;2023-01-26T02:44:09;100824.22;;;3.16;100.00
10881;BME280;5493;48.884;8.338;2023-01-26T02:46:35;100823.91;;;3.19;100.00
10881;BME280;5493;48.884;8.338;2023-01-26T02:49:02;100824.56;;;3.13;100.00
10881;BME280;5493;48.884;8.338;2023-01-26T02:52:03;100836.97;;;3.04;100.00
10881;BME280;5493;48.884;8.338;2023-01-26T02:54:30;100828.13;;;2.95;100.00
10881;BME280;5493;48.884;8.338;2023-01-26T02:57:14;100832.53;;;3.13;100.00
10881;BME280;5493;48.884;8.338;2023-01-26T02:59:42;100819.81;;;2.98;100.00
10881;BME280;5493;48.884;8.338;2023-01-26T03:02:10;100823.47;;;2.97;100.00
10881;BME280;5493;48.884;8.338;2023-01-26T03:04:36;100825.91;;;3.17;100.00
10881;BME280;5493;48.884;8.338;2023-01-26T03:07:03;100822.22;;;3.10;100.00
10881;BME280;5493;48.884;8.338;2023-01-26T03:09:29;100818.00;;;2.99;100.00
10881;BME280;5493;48.884;8.338;2023-01-26T03:11:56;100806.97;;;2.94;100.00
10881;BME280;5493;48.884;8.338;2023-01-26T03:14:22;100819.63;;;2.92;100.00
10881;BME280;5493;48.884;8.338;2023-01-26T03:16:50;100821.50;;;2.74;100.00
10881;BME280;5493;48.884;8.338;2023-01-26T03:19:16;100817.88;;;2.83;100.00
10881;BME280;5493;48.884;8.338;2023-01-26T03:22:00;100813.19;;;2.77;100.00
10881;BME280;5493;48.884;8.338;2023-01-26T03:24:44;100806.06;;;3.11;100.00
10881;BME280;5493;48.884;8.338;2023-01-26T03:27:29;100806.28;;;2.92;100.00
10881;BME280;5493;48.884;8.338;2023-01-26T03:29:56;100809.69;;;3.02;100.00
10881;BME280;5493;48.884;8.338;2023-01-26T03:32:25;100808.19;;;3.00;100.00
10881;BME280;5493;48.884;8.338;2023-01-26T03:34:51;100817.53;;;3.12;100.00
10881;BME280;5493;48.884;8.338;2023-01-26T03:37:20;100808.09;;;3.17;100.00
10881;BME280;5493;48.884;8.338;2023-01-26T03:39:48;100808.31;;;2.98;100.00
10881;BME280;5493;48.884;8.338;2023-01-26T03:42:33;100805.50;;;3.00;100.00
10881;BME280;5493;48.884;8.338;2023-01-26T03:45:17;100801.88;;;3.09;100.00
10881;BME280;5493;48.884;8.338;2023-01-26T03:48:05;100810.13;;;3.23;100.00
10881;BME280;5493;48.884;8.338;2023-01-26T03:50:49;100801.31;;;2.97;100.00
10881;BME280;5493;48.884;8.338;2023-01-26T03:53:33;100805.84;;;2.71;100.00
10881;BME280;5493;48.884;8.338;2023-01-26T03:56:17;100808.38;;;2.80;100.00
10881;BME280;5493;48.884;8.338;2023-01-26T03:58:47;100801.75;;;2.84;100.00
10881;BME280;5493;48.884;8.338;2023-01-26T04:01:14;100797.06;;;2.78;100.00
10881;BME280;5493;48.884;8.338;2023-01-26T04:03:47;100797.84;;;2.71;100.00
10881;BME280;5493;48.884;8.338;2023-01-26T04:06:32;100794.41;;;2.78;100.00
10881;BME280;5493;48.884;8.338;2023-01-26T04:09:16;100788.00;;;2.97;100.00
10881;BME280;5493;48.884;8.338;2023-01-26T04:11:43;100788.75;;;3.07;100.00
10881;BME280;5493;48.884;8.338;2023-01-26T04:14:10;100784.81;;;2.68;100.00
10881;BME280;5493;48.884;8.338;2023-01-26T04:16:55;100786.41;;;2.78;100.00
10881;BME280;5493;48.884;8.338;2023-01-26T04:19:41;100783.31;;;2.91;100.00
10881;BME280;5493;48.884;8.338;2023-01-26T04:22:25;100778.22;;;3.06;100.00
10881;BME280;5493;48.884;8.338;2023-01-26T04:24:52;100778.78;;;3.17;100.00
10881;BME280;5493;48.884;8.338;2023-01-26T04:27:19;100772.13;;;3.13;100.00
10881;BME280;5493;48.884;8.338;2023-01-26T04:29:45;100772.38;;;3.02;100.00
10881;BME280;5493;48.884;8.338;2023-01-26T04:32:12;100768.31;;;2.90;100.00
10881;BME280;5493;48.884;8.338;2023-01-26T04:34:38;100769.84;;;2.92;100.00
10881;BME280;5493;48.884;8.338;2023-01-26T04:37:07;100771.72;;;3.00;100.00
10881;BME280;5493;48.884;8.338;2023-01-26T04:39:34;100770.00;;;2.91;100.00
10881;BME280;5493;48.884;8.338;2023-01-26T04:42:00;100770.97;;;2.82;100.00
10881;BME280;5493;48.884;8.338;2023-01-26T04:44:27;100763.84;;;2.90;100.00
10881;BME280;5493;48.884;8.338;2023-01-26T04:46:53;100765.19;;;2.94;100.00
10881;BME280;5493;48.884;8.338;2023-01-26T04:49:20;100764.16;;;3.21;100.00
10881;BME280;5493;48.884;8.338;2023-01-26T04:51:46;100765.41;;;3.43;100.00
10881;BME280;5493;48.884;8.338;2023-01-26T04:54:17;100767.19;;;2.92;100.00
10881;BME280;5493;48.884;8.338;2023-01-26T04:56:44;100759.59;;;3.06;100.00
10881;BME280;5493;48.884;8.338;2023-01-26T04:59:11;100755.25;;;3.05;100.00
10881;BME280;5493;48.884;8.338;2023-01-26T05:01:37;100755.09;;;3.06;100.00
10881;BME280;5493;48.884;8.338;2023-01-26T05:04:05;100764.41;;;2.76;100.00
10881;BME280;5493;48.884;8.338;2023-01-26T05:06:32;100765.00;;;2.88;100.00
10881;BME280;5493;48.884;8.338;2023-01-26T05:08:58;100763.63;;;2.84;100.00
10881;BME280;5493;48.884;8.338;2023-01-26T05:11:26;100757.53;;;2.91;100.00
10881;BME280;5493;48.884;8.338;2023-01-26T05:13:53;100757.16;;;2.86;100.00
10881;BME280;5493;48.884;8.338;2023-01-26T05:16:19;100759.91;;;3.03;100.00
10881;BME280;5493;48.884;8.338;2023-01-26T05:18:46;100753.94;;;2.75;100.00
10881;BME280;5493;48.884;8.338;2023-01-26T05:21:15;100754.09;;;2.73;100.00
10881;BME280;5493;48.884;8.338;2023-01-26T05:23:42;100760.72;;;2.69;100.00
10881;BME280;5493;48.884;8.338;2023-01-26T05:26:09;100750.53;;;2.90;100.00
10881;BME280;5493;48.884;8.338;2023-01-26T05:28:36;100750.59;;;3.07;100.00
10881;BME280;5493;48.884;8.338;2023-01-26T05:31:03;100747.78;;;3.08;100.00
10881;BME280;5493;48.884;8.338;2023-01-26T05:33:30;100751.97;;;3.11;100.00
10881;BME280;5493;48.884;8.338;2023-01-26T05:35:56;100751.88;;;3.28;100.00
10881;BME280;5493;48.884;8.338;2023-01-26T05:38:23;100745.72;;;3.36;100.00
10881;BME280;5493;48.884;8.338;2023-01-26T05:40:50;100743.75;;;3.46;100.00
10881;BME280;5493;48.884;8.338;2023-01-26T05:43:17;100738.50;;;3.20;100.00
10881;BME280;5493;48.884;8.338;2023-01-26T05:45:45;100742.63;;;3.07;100.00
10881;BME280;5493;48.884;8.338;2023-01-26T05:48:11;100738.56;;;2.94;100.00
10881;BME280;5493;48.884;8.338;2023-01-26T05:50:38;100736.88;;;2.93;100.00
10881;BME280;5493;48.884;8.338;2023-01-26T05:53:04;100738.03;;;2.91;100.00
10881;BME280;5493;48.884;8.338;2023-01-26T05:55:31;100737.91;;;3.01;100.00
10881;BME280;5493;48.884;8.338;2023-01-26T05:57:57;100734.63;;;3.15;100.00
10881;BME280;5493;48.884;8.338;2023-01-26T06:00:24;100740.38;;;2.94;100.00
10881;BME280;5493;48.884;8.338;2023-01-26T06:02:52;100739.25;;;3.05;100.00
10881;BME280;5493;48.884;8.338;2023-01-26T06:05:19;100734.13;;;3.11;100.00
10881;BME280;5493;48.884;8.338;2023-01-26T06:07:45;100741.69;;;2.90;100.00
10881;BME280;5493;48.884;8.338;2023-01-26T06:10:11;100741.25;;;3.03;100.00
10881;BME280;5493;48.884;8.338;2023-01-26T06:12:38;100742.81;;;3.13;100.00
10881;BME280;5493;48.884;8.338;2023-01-26T06:15:08;100745.28;;;3.15;100.00
10881;BME280;5493;48.884;8.338;2023-01-26T06:17:36;100738.94;;;3.08;100.00
10881;BME280;5493;48.884;8.338;2023-01-26T06:20:05;100742.13;;;3.11;100.00
10881;BME280;5493;48.884;8.338;2023-01-26T06:22:32;100736.63;;;3.13;100.00
10881;BME280;5493;48.884;8.338;2023-01-26T06:24:58;100734.19;;;3.27;100.00
10881;BME280;5493;48.884;8.338;2023-01-26T06:27:25;100740.25;;;3.45;100.00
10881;BME280;5493;48.884;8.338;2023-01-26T06:29:51;100731.66;;;3.68;100.00
10881;BME280;5493;48.884;8.338;2023-01-26T06:32:18;100743.53;;;3.31;100.00
10881;BME280;5493;48.884;8.338;2023-01-26T06:34:44;100746.34;;;3.22;100.00
10881;BME280;5493;48.884;8.338;2023-01-26T06:37:12;100751.28;;;3.09;100.00
10881;BME280;5493;48.884;8.338;2023-01-26T06:39:39;100754.81;;;3.17;100.00
10881;BME280;5493;48.884;8.338;2023-01-26T06:42:06;100754.59;;;3.03;100.00
10881;BME280;5493;48.884;8.338;2023-01-26T06:44:33;100745.47;;;3.13;100.00
10881;BME280;5493;48.884;8.338;2023-01-26T06:46:59;100746.78;;;3.09;100.00
10881;BME280;5493;48.884;8.338;2023-01-26T06:49:26;100751.03;;;3.28;100.00
10881;BME280;5493;48.884;8.338;2023-01-26T06:51:56;100746.88;;;3.25;100.00
10881;BME280;5493;48.884;8.338;2023-01-26T06:54:25;100757.91;;;3.05;100.00
10881;BME280;5493;48.884;8.338;2023-01-26T06:56:51;100746.03;;;3.33;100.00
10881;BME280;5493;48.884;8.338;2023-01-26T06:59:18;100756.69;;;3.25;100.00
10881;BME280;5493;48.884;8.338;2023-01-26T07:01:45;100757.66;;;3.24;100.00
10881;BME280;5493;48.884;8.338;2023-01-26T07:04:14;100757.13;;;3.12;100.00
10881;BME280;5493;48.884;8.338;2023-01-26T07:06:42;100760.47;;;3.14;100.00
10881;BME280;5493;48.884;8.338;2023-01-26T07:09:09;100755.69;;;3.34;100.00
10881;BME280;5493;48.884;8.338;2023-01-26T07:11:37;100763.06;;;3.40;100.00
10881;BME280;5493;48.884;8.338;2023-01-26T07:14:04;100758.13;;;3.19;100.00
10881;BME280;5493;48.884;8.338;2023-01-26T07:16:30;100756.03;;;3.31;100.00
10881;BME280;5493;48.884;8.338;2023-01-26T07:18:56;100765.28;;;3.19;100.00
10881;BME280;5493;48.884;8.338;2023-01-26T07:21:23;100761.22;;;3.32;100.00
10881;BME280;5493;48.884;8.338;2023-01-26T07:23:49;100761.13;;;3.16;100.00
10881;BME280;5493;48.884;8.338;2023-01-26T07:26:18;100769.06;;;3.08;100.00
10881;BME280;5493;48.884;8.338;2023-01-26T07:28:46;100769.06;;;3.08;100.00
10881;BME280;5493;48.884;8.338;2023-01-26T07:31:12;100774.22;;;3.02;100.00
10881;BME280;5493;48.884;8.338;2023-01-26T07:33:39;100772.59;;;2.83;100.00
10881;BME280;5493;48.884;8.338;2023-01-26T07:36:06;100769.59;;;3.04;100.00
10881;BME280;5493;48.884;8.338;2023-01-26T07:38:34;100775.72;;;3.04;100.00
10881;BME280;5493;48.884;8.338;2023-01-26T07:41:05;100780.97;;;2.88;100.00
10881;BME280;5493;48.884;8.338;2023-01-26T07:43:33;100780.66;;;2.65;100.00
10881;BME280;5493;48.884;8.338;2023-01-26T07:46:01;100774.22;;;2.50;100.00
10881;BME280;5493;48.884;8.338;2023-01-26T07:48:28;100773.88;;;2.71;100.00
10881;BME280;5493;48.884;8.338;2023-01-26T07:50:57;100776.38;;;2.72;100.00
10881;BME280;5493;48.884;8.338;2023-01-26T07:53:24;100772.31;;;2.60;100.00
10881;BME280;5493;48.884;8.338;2023-01-26T07:55:53;100769.28;;;2.55;100.00
10881;BME280;5493;48.884;8.338;2023-01-26T07:58:20;100773.66;;;2.64;100.00
10881;BME280;5493;48.884;8.338;2023-01-26T08:00:46;100773.66;;;2.64;100.00
10881;BME280;5493;48.884;8.338;2023-01-26T08:03:14;100779.09;;;2.55;100.00
10881;BME280;5493;48.884;8.338;2023-01-26T08:05:41;100780.50;;;2.67;100.00
10881;BME280;5493;48.884;8.338;2023-01-26T08:08:07;100777.72;;;2.76;100.00
10881;BME280;5493;48.884;8.338;2023-01-26T08:10:34;100781.03;;;2.70;100.00
10881;BME280;5493;48.884;8.338;2023-01-26T08:13:01;100784.03;;;2.75;100.00
10881;BME280;5493;48.884;8.338;2023-01-26T08:15:27;100788.44;;;2.84;100.00
10881;BME280;5493;48.884;8.338;2023-01-26T08:17:54;100791.69;;;2.70;100.00
10881;BME280;5493;48.884;8.338;2023-01-26T08:20:22;100789.34;;;2.67;100.00
10881;BME280;5493;48.884;8.338;2023-01-26T08:22:49;100788.56;;;2.57;100.00
10881;BME280;5493;48.884;8.338;2023-01-26T08:25:15;100791.69;;;2.70;100.00
10881;BME280;5493;48.884;8.338;2023-01-26T08:27:42;100802.16;;;2.72;100.00
10881;BME280;5493;48.884;8.338;2023-01-26T08:30:09;100801.69;;;2.76;100.00
10881;BME280;5493;48.884;8.338;2023-01-26T08:32:36;100796.75;;;2.56;100.00
10881;BME280;5493;48.884;8.338;2023-01-26T08:35:03;100800.56;;;2.53;100.00
10881;BME280;5493;48.884;8.338;2023-01-26T08:37:32;100796.97;;;2.44;100.00
10881;BME280;5493;48.884;8.338;2023-01-26T08:39:58;100802.09;;;2.38;100.00
10881;BME280;5493;48.884;8.338;2023-01-26T08:42:24;100792.78;;;2.60;100.00
10881;BME280;5493;48.884;8.338;2023-01-26T08:44:51;100792.56;;;2.79;100.00
10881;BME280;5493;48.884;8.338;2023-01-26T08:47:17;100798.69;;;2.71;100.00
10881;BME280;5493;48.884;8.338;2023-01-26T08:49:44;100791.19;;;2.49;100.00
10881;BME280;5493;48.884;8.338;2023-01-26T08:52:11;100796.22;;;2.78;100.00
10881;BME280;5493;48.884;8.338;2023-01-26T08:54:38;100796.75;;;2.81;100.00
10881;BME280;5493;48.884;8.338;2023-01-26T08:57:05;100794.69;;;2.75;100.00
10881;BME280;5493;48.884;8.338;2023-01-26T08:59:31;100803.19;;;2.79;100.00
10881;BME280;5493;48.884;8.338;2023-01-26T09:01:58;100798.13;;;2.93;100.00
10881;BME280;5493;48.884;8.338;2023-01-26T09:04:24;100796.31;;;2.68;100.00
10881;BME280;5493;48.884;8.338;2023-01-26T09:06:52;100800.91;;;2.84;100.00
10881;BME280;5493;48.884;8.338;2023-01-26T09:09:18;100794.34;;;2.70;100.00
10881;BME280;5493;48.884;8.338;2023-01-26T09:11:46;100799.34;;;2.73;100.00
10881;BME280;5493;48.884;8.338;2023-01-26T09:14:13;100795.44;;;2.85;100.00
10881;BME280;5493;48.884;8.338;2023-01-26T09:16:39;100795.56;;;3.10;100.00
10881;BME280;5493;48.884;8.338;2023-01-26T09:19:06;100790.63;;;2.89;100.00
10881;BME280;5493;48.884;8.338;2023-01-26T09:21:32;100797.66;;;2.98;100.00
10881;BME280;5493;48.884;8.338;2023-01-26T09:23:59;100799.34;;;2.73;100.00
10881;BME280;5493;48.884;8.338;2023-01-26T09:26:27;100792.34;;;2.72;100.00
10881;BME280;5493;48.884;8.338;2023-01-26T09:28:55;100797.47;;;2.91;100.00
10881;BME280;5493;48.884;8.338;2023-01-26T09:31:22;100802.47;;;2.94;100.00
10881;BME280;5493;48.884;8.338;2023-01-26T09:33:49;100802.59;;;2.85;100.00
10881;BME280;5493;48.884;8.338;2023-01-26T09:36:16;100803.06;;;2.80;100.00
10881;BME280;5493;48.884;8.338;2023-01-26T09:38:43;100797.09;;;2.86;100.00
10881;BME280;5493;48.884;8.338;2023-01-26T09:41:19;100803.78;;;2.90;100.00
10881;BME280;5493;48.884;8.338;2023-01-26T09:43:50;100800.06;;;3.09;100.00
10881;BME280;5493;48.884;8.338;2023-01-26T09:46:22;100800.63;;;3.21;100.00
10881;BME280;5493;48.884;8.338;2023-01-26T09:48:58;100795.63;;;3.26;100.00
10881;BME280;5493;48.884;8.338;2023-01-26T09:51:31;100794.81;;;3.25;100.00
10881;BME280;5493;48.884;8.338;2023-01-26T09:54:03;100795.75;;;3.16;100.00
10881;BME280;5493;48.884;8.338;2023-01-26T09:56:32;100795.47;;;3.27;100.00
10881;BME280;5493;48.884;8.338;2023-01-26T09:59:02;100793.97;;;3.25;100.00
10881;BME280;5493;48.884;8.338;2023-01-26T10:01:35;100786.84;;;3.33;100.00
10881;BME280;5493;48.884;8.338;2023-01-26T10:04:10;100790.28;;;3.18;100.00
10881;BME280;5493;48.884;8.338;2023-01-26T10:06:38;100793.47;;;3.21;100.00
10881;BME280;5493;48.884;8.338;2023-01-26T10:09:13;100793.19;;;2.98;100.00
10881;BME280;5493;48.884;8.338;2023-01-26T10:11:43;100794.59;;;3.19;100.00
10881;BME280;5493;48.884;8.338;2023-01-26T10:14:14;100794.41;;;3.12;100.00
10881;BME280;5493;48.884;8.338;2023-01-26T10:16:46;100786.53;;;3.03;100.00
10881;BME280;5493;48.884;8.338;2023-01-26T10:19:16;100797.41;;;3.09;100.00
10881;BME280;5493;48.884;8.338;2023-01-26T10:21:49;100798.06;;;3.11;100.00
10881;BME280;5493;48.884;8.338;2023-01-26T10:24:20;100798.69;;;3.05;100.00
10881;BME280;5493;48.884;8.338;2023-01-26T10:26:48;100793.66;;;2.94;100.00
10881;BME280;5493;48.884;8.338;2023-01-26T10:29:15;100787.97;;;2.89;100.00
10881;BME280;5493;48.884;8.338;2023-01-26T10:31:43;100791.94;;;3.19;100.00
10881;BME280;5493;48.884;8.338;2023-01-26T10:34:13;100785.59;;;2.86;100.00
10881;BME280;5493;48.884;8.338;2023-01-26T10:36:43;100786.66;;;2.93;100.00
10881;BME280;5493;48.884;8.338;2023-01-26T10:39:11;100787.28;;;2.87;100.00
10881;BME280;5493;48.884;8.338;2023-01-26T10:41:38;100785.78;;;2.59;100.00
10881;BME280;5493;48.884;8.338;2023-01-26T10:44:21;100777.06;;;3.00;100.00
10881;BME280;5493;48.884;8.338;2023-01-26T10:47:04;100770.66;;;2.85;100.00
10881;BME280;5493;48.884;8.338;2023-01-26T10:49:30;100769.25;;;3.07;100.00
10881;BME280;5493;48.884;8.338;2023-01-26T10:52:13;100771.56;;;2.76;100.00
10881;BME280;5493;48.884;8.338;2023-01-26T10:54:41;100778.03;;;2.99;100.00
10881;BME280;5493;48.884;8.338;2023-01-26T10:57:16;100767.78;;;3.12;100.00
10881;BME280;5493;48.884;8.338;2023-01-26T10:59:49;100765.28;;;3.11;100.00
10881;BME280;5493;48.884;8.338;2023-01-26T11:02:23;100766.34;;;2.92;100.00
10881;BME280;5493;48.884;8.338;2023-01-26T11:07:47;100762.34;;;2.88;100.00
10881;BME280;5493;48.884;8.338;2023-01-26T11:10:25;100758.19;;;2.68;100.00
10881;BME280;5493;48.884;8.338;2023-01-26T11:13:06;100761.88;;;2.92;100.00
10881;BME280;5493;48.884;8.338;2023-01-26T11:15:36;100759.63;;;2.80;100.00
10881;BME280;5493;48.884;8.338;2023-01-26T11:18:12;100751.81;;;2.86;100.00
10881;BME280;5493;48.884;8.338;2023-01-26T11:20:47;100750.66;;;2.81;100.00
10881;BME280;5493;48.884;8.338;2023-01-26T11:23:23;100747.16;;;2.55;100.00
10881;BME280;5493;48.884;8.338;2023-01-26T11:26:11;100746.50;;;2.61;100.00
10881;BME280;5493;48.884;8.338;2023-01-26T11:28:49;100751.75;;;2.70;100.00
10881;BME280;5493;48.884;8.338;2023-01-26T11:31:27;100743.81;;;2.78;100.00
10881;BME280;5493;48.884;8.338;2023-01-26T11:34:06;100737.53;;;2.62;100.00
10881;BME280;5493;48.884;8.338;2023-01-26T11:36:47;100736.88;;;2.60;100.00
10881;BME280;5493;48.884;8.338;2023-01-26T11:39:24;100735.38;;;2.91;100.00
10881;BME280;5493;48.884;8.338;2023-01-26T11:42:06;100738.31;;;2.80;100.00
10881;BME280;5493;48.884;8.338;2023-01-26T11:44:54;100738.50;;;2.78;100.00
10881;BME280;5493;48.884;8.338;2023-01-26T11:47:35;100735.31;;;2.75;100.00
10881;BME280;5493;48.884;8.338;2023-01-26T11:50:27;100728.38;;;2.90;100.00
10881;BME280;5493;48.884;8.338;2023-01-26T11:53:14;100725.47;;;2.75;100.00
10881;BME280;5493;48.884;8.338;2023-01-26T11:55:56;100725.53;;;2.83;100.00
10881;BME280;5493;48.884;8.338;2023-01-26T11:58:30;100715.78;;;3.00;100.00
10881;BME280;5493;48.884;8.338;2023-01-26T12:00:59;100712.41;;;2.90;100.00
10881;BME280;5493;48.884;8.338;2023-01-26T12:03:31;100712.00;;;3.11;100.00
10881;BME280;5493;48.884;8.338;2023-01-26T12:06:04;100716.53;;;3.26;100.00
10881;BME280;5493;48.884;8.338;2023-01-26T12:08:37;100709.31;;;3.03;100.00
10881;BME280;5493;48.884;8.338;2023-01-26T12:11:07;100707.16;;;3.06;100.00
10881;BME280;5493;48.884;8.338;2023-01-26T12:13:58;100703.50;;;3.15;100.00
10881;BME280;5493;48.884;8.338;2023-01-26T12:16:34;100705.94;;;2.92;100.00
10881;BME280;5493;48.884;8.338;2023-01-26T12:19:11;100700.09;;;2.89;100.00
10881;BME280;5493;48.884;8.338;2023-01-26T12:21:43;100689.97;;;3.01;100.00
10881;BME280;5493;48.884;8.338;2023-01-26T12:24:15;100687.91;;;2.78;100.00
10881;BME280;5493;48.884;8.338;2023-01-26T12:26:46;100682.91;;;2.83;100.00
10881;BME280;5493;48.884;8.338;2023-01-26T12:29:17;100687.31;;;3.01;100.00
10881;BME280;5493;48.884;8.338;2023-01-26T12:31:49;100686.06;;;3.21;100.00
10881;BME280;5493;48.884;8.338;2023-01-26T12:34:22;100685.25;;;2.78;100.00
10881;BME280;5493;48.884;8.338;2023-01-26T12:37:02;100681.22;;;2.74;100.00
10881;BME280;5493;48.884;8.338;2023-01-26T12:39:33;100678.09;;;2.87;100.00
10881;BME280;5493;48.884;8.338;2023-01-26T12:42:18;100668.03;;;3.15;100.00
10881;BME280;5493;48.884;8.338;2023-01-26T12:44:52;100677.06;;;2.80;100.00
10881;BME280;5493;48.884;8.338;2023-01-26T12:47:23;100672.22;;;2.75;100.00
10881;BME280;5493;48.884;8.338;2023-01-26T12:49:56;100677.00;;;3.06;100.00
10881;BME280;5493;48.884;8.338;2023-01-26T12:52:30;100676.53;;;2.68;100.00
10881;BME280;5493;48.884;8.338;2023-01-26T12:55:02;100668.47;;;2.94;100.00
10881;BME280;5493;48.884;8.338;2023-01-26T12:57:35;100666.38;;;3.06;100.00
10881;BME280;5493;48.884;8.338;2023-01-26T13:00:06;100671.28;;;2.84;100.00
10881;BME280;5493;48.884;8.338;2023-01-26T13:02:44;100661.66;;;2.91;100.00
10881;BME280;5493;48.884;8.338;2023-01-26T13:05:22;100664.81;;;2.53;100.00
10881;BME280;5493;48.884;8.338;2023-01-26T13:07:51;100668.63;;;2.84;100.00
10881;BME280;5493;48.884;8.338;2023-01-26T13:10:26;100666.91;;;2.75;100.00
10881;BME280;5493;48.884;8.338;2023-01-26T13:12:55;100677.53;;;2.67;100.00
10881;BME280;5493;48.884;8.338;2023-01-26T13:15:23;100672.72;;;2.71;100.00
10881;BME280;5493;48.884;8.338;2023-01-26T13:17:59;100679.47;;;2.57;100.00